Time;durP1;ratioP1;P1;durP2;ratioP2;P2;SDS_P1;SDS_P2;PMS_P1;PMS_P2;Temp;Humidity;BMP_temperature;BMP_pressure;BME280_temperature;BME280_humidity;BME280_pressure;Samples;Min_cycle;Max_cycle;Signal;HPM_P1;HPM_P2
2021/07/14 00:00:19;;;;;;;1.25;1.15;;;21.90;99.90;;;;;;4855433;26;20049;-76
2021/07/14 00:02:46;;;;;;;0.88;0.88;;;21.90;99.90;;;;;;5072143;28;20074;-75
2021/07/14 00:05:14;;;;;;;1.38;1.00;;;21.90;99.80;;;;;;5073362;28;20506;-75
2021/07/14 00:07:40;;;;;;;0.90;0.85;;;21.90;99.70;;;;;;5073205;28;20029;-76
2021/07/14 00:10:09;;;;;;;2.17;1.00;;;21.90;99.90;;;;;;5071656;28;20036;-75
2021/07/14 00:12:44;;;;;;;1.77;1.00;;;21.90;99.90;;;;;;5072963;28;20024;-75
2021/07/14 00:23:29;;;;;;;0.95;0.95;;;21.70;99.90;;;;;;5053109;28;20039;-76
2021/07/14 00:25:55;;;;;;;1.50;1.02;;;21.70;99.90;;;;;;5051334;28;20084;-76
2021/07/14 00:28:22;;;;;;;1.10;1.10;;;21.60;99.90;;;;;;5052751;28;20058;-76
2021/07/14 00:31:00;;;;;;;2.58;1.05;;;21.60;99.90;;;;;;5052695;28;20021;-76
2021/07/14 00:33:27;;;;;;;0.85;0.85;;;21.50;99.90;;;;;;5052437;28;20029;-76
2021/07/14 00:35:55;;;;;;;0.90;0.90;;;21.40;99.90;;;;;;5052639;28;20056;-76
2021/07/14 00:38:21;;;;;;;0.80;0.80;;;21.40;99.90;;;;;;5052765;28;20558;-76
2021/07/14 00:40:46;;;;;;;1.88;0.85;;;21.30;99.90;;;;;;5052733;28;20071;-76
2021/07/14 00:43:12;;;;;;;0.90;0.90;;;21.30;99.90;;;;;;5051360;28;20533;-76
2021/07/14 00:45:38;;;;;;;0.95;0.95;;;21.30;99.90;;;;;;5052273;28;20104;-76
2021/07/14 00:48:06;;;;;;;0.75;0.75;;;21.30;99.90;;;;;;5071313;28;20081;-76
2021/07/14 00:50:34;;;;;;;1.50;0.80;;;21.30;99.90;;;;;;5072635;28;20028;-76
2021/07/14 00:52:59;;;;;;;1.20;1.20;;;21.20;99.90;;;;;;5072465;28;20649;-76
2021/07/14 00:55:25;;;;;;;0.80;0.80;;;21.20;99.90;;;;;;5072474;28;20142;-76
2021/07/14 00:57:51;;;;;;;2.17;1.20;;;21.00;99.90;;;;;;5072529;28;20503;-76
2021/07/14 01:00:17;;;;;;;1.00;1.00;;;20.80;99.90;;;;;;5072320;28;20049;-76
2021/07/14 01:02:43;;;;;;;1.20;1.10;;;20.80;99.90;;;;;;5072549;28;20024;-76
2021/07/14 01:05:11;;;;;;;0.80;0.70;;;20.80;99.90;;;;;;5071027;28;20025;-76
2021/07/14 01:07:44;;;;;;;1.42;1.33;;;20.80;99.90;;;;;;5072466;28;20029;-76
2021/07/14 01:10:21;;;;;;;0.98;0.98;;;20.70;99.90;;;;;;5072385;28;20028;-76
2021/07/14 01:13:26;;;;;;;2.03;1.48;;;20.80;99.90;;;;;;5070896;28;20025;-76
2021/07/14 01:16:00;;;;;;;0.98;0.98;;;20.80;99.90;;;;;;5023479;28;20129;-76
2021/07/14 01:18:37;;;;;;;2.20;1.08;;;20.70;99.90;;;;;;5074607;28;20095;-77
2021/07/14 01:21:28;;;;;;;0.88;0.88;;;20.60;99.90;;;;;;5075746;28;20413;-76
2021/07/14 01:24:17;;;;;;;1.23;1.13;;;20.70;99.90;;;;;;5073922;28;20040;-76
2021/07/14 01:27:06;;;;;;;1.52;1.10;;;20.70;99.90;;;;;;5075594;28;20025;-76
2021/07/14 01:29:41;;;;;;;2.85;1.23;;;20.70;99.90;;;;;;5075701;28;20032;-76
2021/07/14 01:32:08;;;;;;;2.90;1.17;;;20.80;99.90;;;;;;5074460;28;20073;-76
2021/07/14 01:34:37;;;;;;;1.45;1.02;;;20.90;99.90;;;;;;5075492;28;20564;-76
2021/07/14 01:37:06;;;;;;;0.70;0.70;;;20.80;99.90;;;;;;5074258;28;20479;-76
2021/07/14 01:39:33;;;;;;;2.10;1.08;;;20.90;99.90;;;;;;5075821;28;20034;-76
2021/07/14 01:42:01;;;;;;;1.65;1.13;;;20.90;99.90;;;;;;5075543;28;20021;-77
2021/07/14 01:44:28;;;;;;;0.90;0.90;;;20.90;99.90;;;;;;5074291;28;20024;-76
2021/07/14 01:47:04;;;;;;;1.25;1.15;;;20.90;99.90;;;;;;5074007;28;20024;-77
2021/07/14 01:49:33;;;;;;;0.75;0.75;;;20.90;99.90;;;;;;5054022;28;20029;-77
2021/07/14 01:52:05;;;;;;;1.30;1.20;;;20.90;99.90;;;;;;5055414;28;20565;-77
2021/07/14 01:54:31;;;;;;;1.10;1.10;;;20.90;99.90;;;;;;5069807;28;20020;-76
2021/07/14 01:57:00;;;;;;;1.13;1.00;;;20.80;99.90;;;;;;5075355;28;20086;-76
2021/07/14 01:59:28;;;;;;;0.88;0.85;;;20.90;99.90;;;;;;5075125;28;20450;-76
2021/07/14 02:01:56;;;;;;;0.90;0.90;;;20.80;99.90;;;;;;5075124;28;20048;-76
2021/07/14 02:04:30;;;;;;;0.90;0.90;;;20.80;99.90;;;;;;5073748;28;20028;-76
2021/07/14 02:07:27;;;;;;;1.10;1.10;;;20.70;99.90;;;;;;5073811;28;20495;-77
2021/07/14 02:09:55;;;;;;;1.65;0.90;;;20.70;99.90;;;;;;5062645;28;20043;-77
2021/07/14 02:12:27;;;;;;;1.90;0.98;;;20.60;99.90;;;;;;5073600;28;20024;-77
2021/07/14 02:15:04;;;;;;;0.95;0.95;;;20.50;99.90;;;;;;5075097;28;20028;-77
2021/07/14 02:17:33;;;;;;;1.35;1.20;;;20.50;99.90;;;;;;5074852;28;20013;-77
2021/07/14 02:20:05;;;;;;;1.08;1.08;;;20.40;99.90;;;;;;5074902;28;20075;-76
2021/07/14 02:22:31;;;;;;;1.52;1.42;;;20.40;99.90;;;;;;5074656;28;20055;-77
2021/07/14 02:24:57;;;;;;;1.08;0.80;;;20.50;99.90;;;;;;5074842;28;20027;-77
2021/07/14 02:27:23;;;;;;;1.55;1.08;;;20.40;99.90;;;;;;5073563;28;20028;-77
2021/07/14 02:29:49;;;;;;;1.10;0.93;;;20.30;99.90;;;;;;5074104;28;20376;-76
2021/07/14 02:32:23;;;;;;;1.40;1.30;;;20.30;99.90;;;;;;5072943;28;20028;-76
2021/07/14 02:34:52;;;;;;;7.70;1.15;;;20.50;99.90;;;;;;5073994;28;20504;-77
2021/07/14 02:37:30;;;;;;;2.28;0.98;;;20.50;99.90;;;;;;5072838;28;20051;-77
2021/07/14 02:39:59;;;;;;;2.70;1.33;;;20.50;99.90;;;;;;5071108;28;20498;-77
2021/07/14 02:42:29;;;;;;;1.33;0.88;;;20.50;99.90;;;;;;5074324;28;20103;-77
2021/07/14 02:45:00;;;;;;;0.98;0.98;;;20.60;99.90;;;;;;5073072;28;20378;-77
2021/07/14 02:47:26;;;;;;;1.55;1.20;;;20.50;99.90;;;;;;5074205;28;20103;-77
2021/07/14 02:49:53;;;;;;;3.25;1.00;;;20.50;99.90;;;;;;5072915;28;20067;-77
2021/07/14 02:52:23;;;;;;;1.83;1.15;;;20.50;99.90;;;;;;5072827;28;20021;-77
2021/07/14 02:54:50;;;;;;;2.17;1.10;;;20.50;99.90;;;;;;5057261;28;20035;-76
2021/07/14 02:57:19;;;;;;;1.13;1.13;;;20.50;99.90;;;;;;5054160;28;20032;-77
2021/07/14 02:59:53;;;;;;;3.00;1.30;;;20.40;99.90;;;;;;5053886;28;20067;-77
2021/07/14 03:02:21;;;;;;;1.92;1.08;;;20.40;99.90;;;;;;5052785;28;20029;-77
2021/07/14 03:04:51;;;;;;;0.95;0.95;;;20.30;99.90;;;;;;5054268;28;20052;-77
2021/07/14 03:07:22;;;;;;;1.27;1.17;;;20.20;99.90;;;;;;5053906;28;20041;-76
2021/07/14 03:09:49;;;;;;;1.17;1.17;;;20.10;99.90;;;;;;5053900;28;20086;-77
2021/07/14 03:12:17;;;;;;;4.05;1.25;;;20.10;99.90;;;;;;5052753;28;20029;-76
2021/07/14 03:14:51;;;;;;;1.48;1.27;;;20.10;99.90;;;;;;5052508;28;20025;-77
2021/07/14 03:17:18;;;;;;;1.85;1.15;;;20.10;99.90;;;;;;5066136;28;20113;-77
2021/07/14 03:19:45;;;;;;;1.50;1.20;;;20.10;99.90;;;;;;5072473;28;20021;-76
2021/07/14 03:22:13;;;;;;;5.03;1.17;;;20.00;99.90;;;;;;5072417;28;20372;-76
2021/07/14 03:24:41;;;;;;;1.20;0.88;;;20.00;99.90;;;;;;5072588;28;20021;-76
2021/07/14 03:27:08;;;;;;;4.00;1.33;;;20.00;99.90;;;;;;5072320;28;20027;-76
2021/07/14 03:29:36;;;;;;;3.05;1.30;;;20.00;99.90;;;;;;5073650;28;20024;-76
2021/07/14 03:32:03;;;;;;;2.28;1.33;;;19.90;99.90;;;;;;5071773;28;20029;-76
2021/07/14 03:34:31;;;;;;;4.95;1.13;;;19.90;99.90;;;;;;5072175;28;20032;-76
2021/07/14 03:39:56;;;;;;;1.33;1.20;;;19.80;99.90;;;;;;5108915;22;20053;-75
2021/07/14 03:42:23;;;;;;;2.60;1.13;;;19.90;99.90;;;;;;5052919;28;20476;-76
2021/07/14 03:44:50;;;;;;;3.20;1.42;;;19.80;99.90;;;;;;5035063;28;20031;-75
2021/07/14 03:47:18;;;;;;;1.42;1.30;;;19.60;99.90;;;;;;5052065;28;20021;-75
2021/07/14 03:49:45;;;;;;;0.95;0.93;;;19.60;99.90;;;;;;5033701;28;20311;-76
2021/07/14 03:52:13;;;;;;;1.63;1.10;;;19.70;99.90;;;;;;5051664;28;20032;-76
2021/07/14 03:54:39;;;;;;;1.55;1.33;;;19.70;99.90;;;;;;5051932;28;20021;-76
2021/07/14 03:57:09;;;;;;;1.55;1.30;;;19.60;99.90;;;;;;5051819;28;20424;-76
2021/07/14 03:59:39;;;;;;;1.33;1.23;;;19.60;99.90;;;;;;5033936;28;20369;-75
2021/07/14 04:02:12;;;;;;;1.50;1.40;;;19.60;99.90;;;;;;5052560;28;20025;-75
2021/07/14 04:04:39;;;;;;;1.20;1.17;;;19.50;99.90;;;;;;5052567;28;20025;-75
2021/07/14 04:07:28;;;;;;;2.38;1.00;;;19.40;99.90;;;;;;5034252;28;20028;-75
2021/07/14 04:09:53;;;;;;;2.63;1.23;;;19.50;99.90;;;;;;5051573;28;20223;-75
2021/07/14 04:12:19;;;;;;;0.90;0.90;;;19.30;99.90;;;;;;5051500;28;20025;-76
2021/07/14 04:14:46;;;;;;;1.30;1.20;;;19.40;99.90;;;;;;5051606;28;20033;-76
2021/07/14 04:17:12;;;;;;;1.00;1.00;;;19.40;99.90;;;;;;5051141;28;20083;-76
2021/07/14 04:19:42;;;;;;;1.38;1.27;;;19.50;99.90;;;;;;5033404;28;20167;-76
2021/07/14 04:22:09;;;;;;;1.60;1.30;;;19.60;99.90;;;;;;5051445;28;20013;-75
2021/07/14 04:24:35;;;;;;;6.55;1.38;;;19.60;99.90;;;;;;5051386;28;20040;-75
2021/07/14 04:27:02;;;;;;;1.30;1.00;;;19.60;99.90;;;;;;5051220;28;20032;-76
2021/07/14 04:29:28;;;;;;;1.65;1.33;;;19.60;99.90;;;;;;5051253;28;20491;-76
2021/07/14 04:31:54;;;;;;;1.13;1.10;;;19.60;99.90;;;;;;5051490;28;20020;-76
2021/07/14 04:34:19;;;;;;;2.38;1.20;;;19.70;99.90;;;;;;5033333;28;20021;-75
2021/07/14 04:36:45;;;;;;;1.50;1.25;;;19.70;99.90;;;;;;5051288;28;20036;-76
2021/07/14 04:39:12;;;;;;;1.30;0.85;;;19.60;99.90;;;;;;5050972;28;20091;-76
2021/07/14 04:41:38;;;;;;;1.80;1.08;;;19.60;99.90;;;;;;5051394;28;20021;-75
2021/07/14 04:44:05;;;;;;;0.93;0.90;;;19.60;99.90;;;;;;5051058;28;20029;-75
2021/07/14 04:46:32;;;;;;;10.43;1.27;;;19.60;99.90;;;;;;5033289;28;20017;-75
2021/07/14 04:48:58;;;;;;;5.35;1.27;;;19.60;99.90;;;;;;5051133;28;20025;-76
2021/07/14 04:51:25;;;;;;;1.20;1.15;;;19.60;99.90;;;;;;5054859;28;20365;-76
2021/07/14 04:54:09;;;;;;;1.77;1.08;;;19.70;99.90;;;;;;5055247;28;20017;-76
2021/07/14 04:56:35;;;;;;;0.90;0.90;;;19.70;99.90;;;;;;5054947;28;20029;-76
2021/07/14 04:59:01;;;;;;;2.08;1.10;;;19.80;99.90;;;;;;5053683;28;20480;-76
2021/07/14 05:01:26;;;;;;;1.45;1.20;;;19.90;99.90;;;;;;5054652;28;20460;-76
2021/07/14 05:03:52;;;;;;;1.10;0.98;;;20.00;99.90;;;;;;5054469;28;20511;-76
2021/07/14 05:06:19;;;;;;;2.05;1.00;;;20.10;99.90;;;;;;5054777;28;20025;-76
2021/07/14 05:08:45;;;;;;;2.25;1.17;;;20.20;99.90;;;;;;5037171;28;20024;-76
2021/07/14 05:11:15;;;;;;;1.08;0.98;;;20.20;99.90;;;;;;5055427;28;20032;-76
2021/07/14 05:13:41;;;;;;;3.03;1.35;;;20.30;99.90;;;;;;5053532;28;20112;-76
2021/07/14 05:16:09;;;;;;;1.83;1.40;;;20.20;99.90;;;;;;5056094;28;20021;-76
2021/07/14 05:18:36;;;;;;;1.40;1.30;;;20.30;99.90;;;;;;5037815;28;20040;-76
2021/07/14 05:21:02;;;;;;;1.20;1.10;;;20.30;99.90;;;;;;5037944;28;20541;-76
2021/07/14 05:23:28;;;;;;;3.25;1.30;;;20.30;99.90;;;;;;5055132;28;20021;-77
2021/07/14 05:25:54;;;;;;;2.17;1.30;;;20.30;99.90;;;;;;5055057;28;20020;-76
2021/07/14 05:28:19;;;;;;;1.42;1.10;;;20.40;99.90;;;;;;5055042;28;20025;-76
2021/07/14 05:30:45;;;;;;;1.42;1.33;;;20.30;99.90;;;;;;5054387;28;20032;-77
2021/07/14 05:33:11;;;;;;;1.25;1.13;;;20.30;99.90;;;;;;5036132;28;20555;-76
2021/07/14 05:35:37;;;;;;;2.10;1.60;;;20.40;99.90;;;;;;5055266;28;20021;-76
2021/07/14 05:38:03;;;;;;;3.55;1.10;;;20.40;99.90;;;;;;5055820;28;20495;-77
2021/07/14 05:40:29;;;;;;;1.27;1.13;;;20.50;99.90;;;;;;5055619;28;20067;-76
2021/07/14 05:42:55;;;;;;;3.55;1.27;;;20.50;99.90;;;;;;5055598;28;20492;-77
2021/07/14 05:45:24;;;;;;;2.35;1.10;;;20.60;99.90;;;;;;5055793;28;20063;-76
2021/07/14 05:47:49;;;;;;;2.88;1.40;;;20.70;99.90;;;;;;5055349;28;20468;-76
2021/07/14 05:50:15;;;;;;;2.67;1.25;;;20.70;99.90;;;;;;5037675;28;20064;-77
2021/07/14 05:52:41;;;;;;;2.63;1.23;;;20.80;99.90;;;;;;5055455;28;20059;-76
2021/07/14 05:55:10;;;;;;;1.88;1.45;;;20.80;99.90;;;;;;5055383;28;20029;-77
2021/07/14 05:57:36;;;;;;;3.97;1.40;;;20.90;99.90;;;;;;5055102;28;20071;-77
2021/07/14 06:00:05;;;;;;;1.08;1.02;;;20.90;99.90;;;;;;5055029;28;20037;-76
2021/07/14 06:02:31;;;;;;;2.58;1.13;;;21.00;99.90;;;;;;5053534;28;20025;-77
2021/07/14 06:04:56;;;;;;;1.00;1.00;;;21.00;99.90;;;;;;5055124;28;20046;-76
2021/07/14 06:07:22;;;;;;;1.60;1.25;;;21.10;99.90;;;;;;5055014;28;20172;-76
2021/07/14 06:09:48;;;;;;;1.88;1.35;;;21.20;99.90;;;;;;5054832;28;20372;-76
2021/07/14 06:12:14;;;;;;;1.58;1.38;;;21.20;99.90;;;;;;5054704;28;20055;-76
2021/07/14 06:14:40;;;;;;;2.42;1.35;;;21.20;99.90;;;;;;5055079;28;20029;-77
2021/07/14 06:17:05;;;;;;;1.88;1.25;;;21.10;99.90;;;;;;5054978;28;20116;-76
2021/07/14 06:19:32;;;;;;;4.40;1.25;;;21.20;99.90;;;;;;5036576;28;20090;-76
2021/07/14 06:21:58;;;;;;;1.85;1.30;;;21.20;99.90;;;;;;5054388;28;20021;-77
2021/07/14 06:24:24;;;;;;;4.00;1.52;;;21.20;99.90;;;;;;5064744;28;20029;-76
2021/07/14 06:26:54;;;;;;;2.55;1.30;;;21.20;99.90;;;;;;5058783;28;20027;-76
2021/07/14 06:29:21;;;;;;;2.70;1.13;;;21.30;99.90;;;;;;5036508;28;20075;-76
2021/07/14 06:31:47;;;;;;;3.97;1.30;;;21.40;99.90;;;;;;5054857;28;20407;-76
2021/07/14 06:34:13;;;;;;;1.40;1.10;;;21.30;99.90;;;;;;5036669;28;20021;-76
2021/07/14 06:36:39;;;;;;;2.65;1.50;;;21.30;99.90;;;;;;5054664;28;20066;-76
2021/07/14 06:39:05;;;;;;;6.00;1.23;;;21.30;99.90;;;;;;5054354;28;20576;-76
2021/07/14 06:41:31;;;;;;;3.95;1.60;;;21.30;99.90;;;;;;5036621;28;20112;-76
2021/07/14 06:44:01;;;;;;;1.23;1.13;;;21.30;99.90;;;;;;5054107;28;20017;-76
2021/07/14 06:46:28;;;;;;;1.77;1.67;;;21.30;99.90;;;;;;5036349;28;20021;-76
2021/07/14 06:48:54;;;;;;;2.95;1.05;;;21.30;99.90;;;;;;5054250;28;20031;-76
2021/07/14 06:51:20;;;;;;;2.17;1.40;;;21.30;99.90;;;;;;5053934;28;20484;-76
2021/07/14 06:53:45;;;;;;;6.38;1.33;;;21.30;99.90;;;;;;5053885;28;20055;-76
2021/07/14 06:56:11;;;;;;;3.33;1.27;;;21.30;99.90;;;;;;5062431;28;20395;-76
2021/07/14 06:58:39;;;;;;;4.72;1.48;;;21.40;99.90;;;;;;5053860;28;20032;-76
2021/07/14 07:01:05;;;;;;;2.28;1.95;;;21.40;99.90;;;;;;5053977;28;20025;-76
2021/07/14 07:03:31;;;;;;;4.55;1.75;;;21.30;99.90;;;;;;5054106;28;20493;-76
2021/07/14 07:05:57;;;;;;;5.63;1.90;;;21.40;99.90;;;;;;5054119;28;20032;-76
2021/07/14 07:08:23;;;;;;;2.85;1.55;;;21.40;99.90;;;;;;5054042;28;20025;-76
2021/07/14 07:10:49;;;;;;;3.45;1.45;;;21.50;99.90;;;;;;5053857;28;20021;-76
2021/07/14 07:13:18;;;;;;;1.80;1.70;;;21.60;99.90;;;;;;5053300;28;20036;-77
2021/07/14 07:15:45;;;;;;;5.60;2.05;;;21.60;99.90;;;;;;5036053;28;20035;-77
2021/07/14 07:18:11;;;;;;;2.20;1.95;;;21.70;99.90;;;;;;5053809;28;20035;-76
2021/07/14 07:20:37;;;;;;;3.15;1.40;;;21.80;99.90;;;;;;5035973;28;20029;-77
2021/07/14 07:23:03;;;;;;;4.15;1.60;;;21.90;99.90;;;;;;5054054;28;20063;-77
2021/07/14 07:25:29;;;;;;;2.58;1.10;;;21.90;99.90;;;;;;5054274;28;20025;-77
2021/07/14 07:27:58;;;;;;;2.85;1.30;;;22.00;99.90;;;;;;5036531;28;20053;-77
2021/07/14 07:30:24;;;;;;;1.80;1.50;;;21.90;99.90;;;;;;5036311;28;20388;-77
2021/07/14 07:32:50;;;;;;;7.43;1.70;;;21.90;99.90;;;;;;5053861;28;20055;-78
2021/07/14 07:35:16;;;;;;;2.60;1.40;;;21.90;99.90;;;;;;5036162;28;20033;-77
2021/07/14 07:37:42;;;;;;;5.35;1.25;;;22.00;99.90;;;;;;5052910;28;20036;-77
2021/07/14 07:40:09;;;;;;;1.67;1.58;;;22.00;99.90;;;;;;5052711;28;20045;-77
2021/07/14 07:42:35;;;;;;;1.70;1.40;;;22.00;99.90;;;;;;5052641;28;20369;-77
2021/07/14 07:45:00;;;;;;;2.92;1.50;;;22.00;99.90;;;;;;5034520;28;20050;-77
2021/07/14 07:47:26;;;;;;;3.03;1.63;;;21.90;99.90;;;;;;5052506;28;20067;-77
2021/07/14 07:49:52;;;;;;;1.88;1.60;;;22.00;99.90;;;;;;5052606;28;20028;-77
2021/07/14 07:52:18;;;;;;;3.47;2.17;;;22.00;99.90;;;;;;5053135;28;20036;-77
2021/07/14 07:54:45;;;;;;;7.07;1.95;;;22.00;99.90;;;;;;5035319;28;20032;-77
2021/07/14 07:57:11;;;;;;;5.10;1.85;;;22.00;99.90;;;;;;5052942;28;20484;-77
2021/07/14 07:59:37;;;;;;;2.08;1.88;;;22.10;99.90;;;;;;5052905;28;20028;-77
2021/07/14 08:02:05;;;;;;;4.07;1.88;;;22.10;99.90;;;;;;5047596;28;20045;-77
2021/07/14 08:04:31;;;;;;;1.80;1.70;;;22.10;99.90;;;;;;5032935;28;20018;-77
2021/07/14 08:06:57;;;;;;;2.22;1.83;;;22.10;99.90;;;;;;5032018;28;20028;-78
2021/07/14 08:09:23;;;;;;;10.88;2.10;;;22.10;99.90;;;;;;5031858;28;20061;-77
2021/07/14 08:11:49;;;;;;;1.88;1.45;;;22.00;99.90;;;;;;5033520;28;20075;-77
2021/07/14 08:14:16;;;;;;;4.15;2.13;;;22.00;99.90;;;;;;5033245;28;20036;-77
2021/07/14 08:16:45;;;;;;;5.78;2.17;;;22.10;99.90;;;;;;5033272;28;20022;-77
2021/07/14 08:19:11;;;;;;;3.35;1.85;;;22.10;99.90;;;;;;5032852;28;20033;-77
2021/07/14 08:21:38;;;;;;;4.25;2.00;;;22.10;99.90;;;;;;5032565;28;20370;-77
2021/07/14 08:24:04;;;;;;;5.60;1.75;;;22.00;99.90;;;;;;5032435;28;20025;-77
2021/07/14 08:26:29;;;;;;;6.32;1.80;;;22.00;99.90;;;;;;5032840;28;20120;-77
2021/07/14 08:28:55;;;;;;;4.35;1.95;;;22.00;99.90;;;;;;5033113;28;20094;-77
2021/07/14 08:31:23;;;;;;;3.25;2.25;;;22.00;99.90;;;;;;5033059;28;20546;-77
2021/07/14 08:33:49;;;;;;;7.72;2.35;;;22.00;99.90;;;;;;5031772;28;20033;-78
2021/07/14 08:36:15;;;;;;;3.65;2.47;;;22.10;99.90;;;;;;5032628;28;20030;-77
2021/07/14 08:38:41;;;;;;;6.95;1.92;;;22.10;99.90;;;;;;5032385;28;20053;-77
2021/07/14 08:41:10;;;;;;;3.85;1.85;;;22.10;99.90;;;;;;5031510;28;20033;-77
2021/07/14 08:43:41;;;;;;;2.30;2.10;;;22.10;99.90;;;;;;5032079;28;20500;-78
2021/07/14 08:46:07;;;;;;;7.80;2.80;;;22.10;99.90;;;;;;5034526;28;20018;-78
2021/07/14 08:48:33;;;;;;;6.30;2.67;;;22.10;99.90;;;;;;5052266;28;20453;-78
2021/07/14 08:51:00;;;;;;;5.65;2.30;;;22.20;99.90;;;;;;5052230;28;20026;-77
2021/07/14 08:53:27;;;;;;;5.95;2.45;;;22.20;99.90;;;;;;5052539;28;20033;-77
2021/07/14 08:55:55;;;;;;;6.45;2.75;;;22.10;99.90;;;;;;5052478;28;20476;-77
2021/07/14 08:58:22;;;;;;;3.58;2.38;;;22.20;99.90;;;;;;5052603;28;20021;-77
2021/07/14 09:00:50;;;;;;;3.58;2.55;;;22.20;99.90;;;;;;5052411;28;20025;-78
2021/07/14 09:03:16;;;;;;;2.55;2.35;;;22.30;99.90;;;;;;5037315;28;20026;-77
2021/07/14 09:05:45;;;;;;;4.00;2.35;;;22.30;99.90;;;;;;5032710;28;20092;-77
2021/07/14 09:08:11;;;;;;;8.13;2.15;;;22.40;99.90;;;;;;5031109;28;20117;-77
2021/07/14 09:10:40;;;;;;;2.30;2.10;;;22.40;99.90;;;;;;5044258;28;20025;-78
2021/07/14 09:13:07;;;;;;;5.90;2.75;;;22.40;99.90;;;;;;5034413;28;20102;-78
2021/07/14 09:15:43;;;;;;;5.43;2.42;;;22.40;99.90;;;;;;5034647;28;20021;-78
2021/07/14 09:18:11;;;;;;;13.77;2.22;;;22.40;99.90;;;;;;5034494;28;20057;-78
2021/07/14 09:20:37;;;;;;;2.97;1.83;;;22.50;99.90;;;;;;5034582;28;20422;-77
2021/07/14 09:23:05;;;;;;;2.63;2.33;;;22.50;99.90;;;;;;5034255;28;20018;-78
2021/07/14 09:25:59;;;;;;;8.20;2.20;;;22.50;99.90;;;;;;5052238;28;20029;-77
2021/07/14 09:28:33;;;;;;;2.45;2.25;;;22.50;99.90;;;;;;5048594;28;20108;-78
2021/07/14 09:31:10;;;;;;;3.50;2.20;;;22.50;99.90;;;;;;5052200;28;20116;-78
2021/07/14 09:33:42;;;;;;;3.40;2.10;;;22.40;99.90;;;;;;5034107;28;20115;-78
2021/07/14 09:36:08;;;;;;;4.75;1.60;;;22.40;99.90;;;;;;5053679;28;20020;-77
2021/07/14 09:38:37;;;;;;;2.78;1.58;;;22.50;99.90;;;;;;5055524;28;20098;-77
2021/07/14 09:41:05;;;;;;;8.73;1.75;;;22.50;99.90;;;;;;5055756;28;20036;-77
2021/07/14 09:43:35;;;;;;;5.10;1.77;;;22.50;99.90;;;;;;5055511;28;20021;-77
2021/07/14 09:46:03;;;;;;;2.33;1.60;;;22.50;99.90;;;;;;5055656;28;20485;-77
2021/07/14 09:48:30;;;;;;;3.25;1.27;;;22.60;99.90;;;;;;5055545;28;20438;-78
2021/07/14 09:51:04;;;;;;;2.65;1.27;;;22.60;99.90;;;;;;5055551;28;20029;-77
2021/07/14 09:53:32;;;;;;;2.30;1.90;;;22.60;99.90;;;;;;5055329;28;20480;-77
2021/07/14 09:56:15;;;;;;;1.48;1.38;;;22.60;99.90;;;;;;5037418;28;20025;-77
2021/07/14 09:58:41;;;;;;;7.32;1.80;;;22.60;99.60;;;;;;5037374;28;20118;-77
2021/07/14 10:01:11;;;;;;;5.70;1.42;;;22.70;98.40;;;;;;5055318;28;20029;-77
2021/07/14 10:03:47;;;;;;;4.82;1.80;;;22.70;97.70;;;;;;5055142;28;20021;-77
2021/07/14 10:06:15;;;;;;;1.50;1.40;;;22.70;97.20;;;;;;5055586;28;20384;-77
2021/07/14 10:08:42;;;;;;;6.80;1.48;;;22.70;97.70;;;;;;5055198;28;20024;-78
2021/07/14 10:11:20;;;;;;;3.35;1.55;;;22.70;97.90;;;;;;5054671;28;20111;-78
2021/07/14 10:13:59;;;;;;;3.03;1.63;;;22.80;97.90;;;;;;5054404;28;20029;-78
2021/07/14 10:16:30;;;;;;;1.90;1.55;;;23.00;98.40;;;;;;5049493;28;20028;-78
2021/07/14 10:19:12;;;;;;;6.22;1.50;;;23.10;97.60;;;;;;5046918;28;20111;-77
2021/07/14 10:21:40;;;;;;;6.75;1.83;;;23.20;96.30;;;;;;5055428;28;20028;-77
2021/07/14 10:24:10;;;;;;;4.72;1.02;;;23.30;96.80;;;;;;5068103;28;20017;-77
2021/07/14 10:26:38;;;;;;;4.88;1.92;;;23.40;96.80;;;;;;5074416;28;20028;-77
2021/07/14 10:29:05;;;;;;;2.72;2.20;;;23.40;98.10;;;;;;5072261;28;20379;-77
2021/07/14 10:31:32;;;;;;;5.15;2.42;;;23.30;99.00;;;;;;5036644;28;20037;-75
2021/07/14 10:33:58;;;;;;;2.10;2.00;;;23.20;99.10;;;;;;5070133;28;20103;-75
2021/07/14 10:36:33;;;;;;;2.35;1.80;;;23.30;99.30;;;;;;5067295;28;20441;-75
2021/07/14 10:39:21;;;;;;;3.38;2.30;;;23.40;99.10;;;;;;5055648;28;20127;-76
2021/07/14 10:41:48;;;;;;;4.03;2.58;;;23.40;99.60;;;;;;5057480;28;20029;-76
2021/07/14 10:44:16;;;;;;;6.40;3.15;;;23.30;99.90;;;;;;5036046;28;20523;-75
2021/07/14 10:46:42;;;;;;;2.55;2.03;;;23.40;99.90;;;;;;5040759;28;20522;-75
2021/07/14 10:49:09;;;;;;;4.78;1.58;;;23.50;99.00;;;;;;5052860;28;20021;-76
2021/07/14 10:51:36;;;;;;;2.65;1.50;;;23.50;97.50;;;;;;5035924;28;20468;-76
2021/07/14 10:54:11;;;;;;;3.05;1.63;;;23.60;96.70;;;;;;5054073;28;20025;-75
2021/07/14 10:56:45;;;;;;;4.50;1.17;;;23.80;96.40;;;;;;5036179;28;20061;-75
2021/07/14 10:59:12;;;;;;;2.30;1.25;;;24.00;94.70;;;;;;5054356;28;20099;-75
2021/07/14 11:01:41;;;;;;;3.85;1.10;;;24.10;93.10;;;;;;5036658;28;20017;-77
2021/07/14 11:07:06;;;;;;;3.78;2.00;;;24.40;93.00;;;;;;1471360;26;20037;-77
2021/07/14 11:09:33;;;;;;;4.70;2.40;;;24.10;92.50;;;;;;5053991;28;20112;-77
2021/07/14 11:11:59;;;;;;;3.22;1.58;;;24.10;94.40;;;;;;5054243;28;20014;-77
2021/07/14 11:14:39;;;;;;;4.75;1.48;;;24.20;94.60;;;;;;5054276;28;20051;-77
2021/07/14 11:17:07;;;;;;;2.60;1.75;;;24.40;94.60;;;;;;5052432;28;20021;-77
2021/07/14 11:19:51;;;;;;;6.78;2.85;;;24.60;94.40;;;;;;5052332;28;20036;-77
2021/07/14 11:22:40;;;;;;;2.20;1.70;;;24.70;94.80;;;;;;5053481;28;20025;-77
2021/07/14 11:25:24;;;;;;;3.00;2.13;;;24.70;94.30;;;;;;5053053;28;20017;-77
2021/07/14 11:27:53;;;;;;;5.60;1.85;;;24.70;94.40;;;;;;5054015;28;20412;-77
2021/07/14 11:30:28;;;;;;;5.60;1.60;;;24.70;93.30;;;;;;5054305;28;20032;-77
2021/07/14 11:32:56;;;;;;;5.90;1.27;;;25.00;91.40;;;;;;5053819;28;20534;-77
2021/07/14 11:35:33;;;;;;;5.28;1.02;;;25.10;91.00;;;;;;5053978;28;20029;-77
2021/07/14 11:38:03;;;;;;;2.38;1.40;;;25.10;90.30;;;;;;5053906;28;20021;-77
2021/07/14 11:40:38;;;;;;;2.72;0.80;;;25.10;91.00;;;;;;5053419;28;20026;-77
2021/07/14 11:43:15;;;;;;;4.38;0.70;;;25.10;86.70;;;;;;5053733;28;20108;-77
2021/07/14 11:45:47;;;;;;;0.88;0.40;;;24.90;84.60;;;;;;5053576;28;20017;-78
2021/07/14 11:48:15;;;;;;;2.67;1.00;;;24.90;79.00;;;;;;5032352;28;20071;-77
2021/07/14 11:50:48;;;;;;;1.00;0.65;;;25.00;80.30;;;;;;5033500;28;20022;-77
2021/07/14 11:56:15;;;;;;;1.05;0.65;;;25.20;78.00;;;;;;5032619;28;20075;-75
2021/07/14 11:59:01;;;;;;;2.30;0.50;;;25.30;78.10;;;;;;5031820;28;20029;-75
2021/07/14 12:01:27;;;;;;;1.27;0.65;;;25.50;74.50;;;;;;5040163;28;20029;-75
2021/07/14 12:03:59;;;;;;;1.20;0.60;;;25.40;72.60;;;;;;5050422;28;20032;-75
2021/07/14 12:06:33;;;;;;;;;;;25.70;77.30;;;;;;5052179;28;20480;-75
2021/07/14 12:09:00;;;;;;;2.10;0.60;;;25.60;69.90;;;;;;5051962;28;19951;-75
2021/07/14 12:11:25;;;;;;;1.45;0.80;;;25.60;72.20;;;;;;5050960;28;20036;-75
2021/07/14 12:13:52;;;;;;;2.38;0.60;;;25.70;71.60;;;;;;5052571;28;20367;-75
2021/07/14 12:16:31;;;;;;;2.80;0.50;;;25.90;75.10;;;;;;5051221;28;20025;-75
2021/07/14 12:18:58;;;;;;;1.60;0.80;;;25.90;70.30;;;;;;5052747;28;20090;-76
2021/07/14 12:21:39;;;;;;;1.17;0.60;;;26.10;71.30;;;;;;5052665;28;20025;-75
2021/07/14 12:24:07;;;;;;;1.17;0.70;;;26.20;71.50;;;;;;5051376;28;20357;-75
2021/07/14 12:26:33;;;;;;;0.98;0.60;;;26.40;71.30;;;;;;5052481;28;20036;-75
2021/07/14 12:29:18;;;;;;;2.28;0.60;;;26.30;71.10;;;;;;5051844;28;20434;-75
2021/07/14 12:31:48;;;;;;;3.35;0.60;;;26.30;71.30;;;;;;5050299;28;20045;-76
2021/07/14 12:34:29;;;;;;;0.65;0.60;;;26.50;68.50;;;;;;5055751;28;20411;-75
2021/07/14 12:36:56;;;;;;;0.57;0.55;;;26.40;68.00;;;;;;5047914;28;20025;-74
2021/07/14 12:39:31;;;;;;;0.47;0.47;;;26.30;71.00;;;;;;5046584;28;20044;-75
2021/07/14 12:42:03;;;;;;;1.48;0.68;;;26.50;69.20;;;;;;5045635;28;20033;-78
2021/07/14 12:44:30;;;;;;;1.20;0.70;;;26.50;71.00;;;;;;5048123;28;20021;-77
2021/07/14 12:47:12;;;;;;;0.43;0.30;;;26.50;68.20;;;;;;5047399;28;20375;-77
2021/07/14 12:49:38;;;;;;;0.30;0.30;;;26.80;63.80;;;;;;5047494;28;20144;-77
2021/07/14 12:52:16;;;;;;;0.98;0.30;;;27.00;59.90;;;;;;5029394;28;20026;-77
2021/07/14 12:54:47;;;;;;;0.70;0.30;;;27.10;57.90;;;;;;5046926;28;20028;-76
2021/07/14 12:57:19;;;;;;;1.08;0.55;;;27.20;58.00;;;;;;5048887;28;20087;-75
2021/07/14 12:59:51;;;;;;;0.20;0.20;;;26.80;57.60;;;;;;5047432;28;20029;-75
2021/07/14 13:02:18;;;;;;;2.30;0.38;;;26.80;58.90;;;;;;5048855;28;20025;-75
2021/07/14 13:04:51;;;;;;;0.25;0.25;;;27.10;61.70;;;;;;5047423;28;20668;-75
2021/07/14 13:07:23;;;;;;;0.30;0.30;;;27.30;57.90;;;;;;5048111;28;20059;-76
2021/07/14 13:09:51;;;;;;;0.30;0.30;;;27.50;59.50;;;;;;5048048;28;20033;-75
2021/07/14 13:12:17;;;;;;;0.22;0.22;;;27.50;55.30;;;;;;5050541;28;20024;-76
2021/07/14 13:14:43;;;;;;;0.77;0.40;;;27.40;53.90;;;;;;5053413;28;20082;-75